Time;durP1;ratioP1;P1;durP2;ratioP2;P2;SDS_P1;SDS_P2;PMS_P1;PMS_P2;Temp;Humidity;BMP_temperature;BMP_pressure;BME280_temperature;BME280_humidity;BME280_pressure;Samples;Min_cycle;Max_cycle;Signal;HPM_P1;HPM_P2
2021/05/26 00:00:12;;;;;;;13.38;3.83;;;;;;;;;;8323996;28;20071;-66
2021/05/26 00:04:17;;;;;;;9.60;3.85;;;;;;;;;;8310786;28;20074;-66
2021/05/26 00:08:32;;;;;;;7.63;3.53;;;;;;;;;;8323003;28;20435;-67
2021/05/26 00:12:38;;;;;;;7.50;3.35;;;;;;;;;;8325644;28;20114;-68
2021/05/26 00:16:43;;;;;;;8.52;2.95;;;;;;;;;;8322976;28;20450;-67
2021/05/26 00:20:49;;;;;;;9.60;2.90;;;;;;;;;;8325379;28;20078;-67
2021/05/26 00:24:53;;;;;;;6.93;2.63;;;;;;;;;;8326496;28;20459;-66
2021/05/26 00:28:59;;;;;;;9.55;3.00;;;;;;;;;;8325271;28;20467;-67
2021/05/26 00:33:04;;;;;;;12.73;3.75;;;;;;;;;;8322964;28;20402;-67
2021/05/26 00:37:08;;;;;;;6.35;2.92;;;;;;;;;;8324033;28;20510;-67
2021/05/26 00:41:13;;;;;;;10.57;3.45;;;;;;;;;;8323891;28;20417;-68
2021/05/26 00:45:18;;;;;;;7.13;2.67;;;;;;;;;;8327519;28;20074;-67
2021/05/26 00:49:23;;;;;;;7.43;2.65;;;;;;;;;;8311698;28;20056;-66
2021/05/26 00:53:30;;;;;;;6.00;2.53;;;;;;;;;;8328860;28;20443;-67
2021/05/26 00:57:35;;;;;;;8.27;2.50;;;;;;;;;;8328893;28;20371;-67
2021/05/26 01:01:41;;;;;;;6.93;2.80;;;;;;;;;;8329936;28;20370;-67
2021/05/26 01:05:46;;;;;;;6.43;3.10;;;;;;;;;;8328938;28;20044;-67
2021/05/26 01:09:56;;;;;;;5.78;2.78;;;;;;;;;;8331696;28;20352;-67
2021/05/26 01:14:01;;;;;;;7.53;2.92;;;;;;;;;;8310586;28;20352;-66
2021/05/26 01:18:20;;;;;;;9.90;3.70;;;;;;;;;;8310293;28;20474;-67
2021/05/26 01:22:27;;;;;;;10.02;3.03;;;;;;;;;;8327033;28;20343;-66
2021/05/26 01:26:33;;;;;;;9.85;3.28;;;;;;;;;;8311693;28;20386;-66
2021/05/26 01:30:38;;;;;;;5.75;2.83;;;;;;;;;;8327782;28;20386;-66
2021/05/26 01:34:42;;;;;;;6.45;2.70;;;;;;;;;;8310080;28;20044;-67
2021/05/26 01:38:50;;;;;;;8.18;3.33;;;;;;;;;;8326402;28;20462;-67
2021/05/26 01:42:55;;;;;;;5.70;2.83;;;;;;;;;;8327029;28;20390;-67
2021/05/26 01:47:01;;;;;;;6.03;2.72;;;;;;;;;;8329199;28;20439;-67
2021/05/26 01:51:05;;;;;;;7.32;2.42;;;;;;;;;;8325560;28;20463;-66
2021/05/26 01:55:11;;;;;;;8.43;3.45;;;;;;;;;;8328328;28;20483;-67
2021/05/26 01:59:16;;;;;;;6.50;3.20;;;;;;;;;;8327044;28;20394;-66
2021/05/26 02:03:25;;;;;;;8.38;2.38;;;;;;;;;;8309165;28;20463;-67
2021/05/26 02:07:30;;;;;;;5.25;2.80;;;;;;;;;;8328833;28;20056;-67
2021/05/26 02:16:06;;;;;;;10.10;2.75;;;;;;;;;;8309428;28;20471;-67
2021/05/26 02:20:12;;;;;;;7.38;2.78;;;;;;;;;;8324844;28;20362;-67
2021/05/26 02:24:17;;;;;;;8.80;2.33;;;;;;;;;;8325665;28;20467;-67
2021/05/26 02:28:23;;;;;;;5.40;2.53;;;;;;;;;;8326175;28;20376;-67
2021/05/26 02:32:28;;;;;;;5.35;2.55;;;;;;;;;;8325017;28;20478;-67
2021/05/26 02:36:39;;;;;;;5.72;2.45;;;;;;;;;;8324283;28;20439;-67
2021/05/26 02:40:44;;;;;;;8.68;4.93;;;;;;;;;;8325835;28;20383;-67
2021/05/26 02:44:55;;;;;;;56.97;25.58;;;;;;;;;;8308101;28;20566;-66
2021/05/26 02:49:06;;;;;;;58.25;27.25;;;;;;;;;;8292682;28;20060;-67
2021/05/26 02:53:11;;;;;;;40.15;18.48;;;;;;;;;;8292658;28;20448;-67
2021/05/26 02:57:20;;;;;;;44.00;19.15;;;;;;;;;;8308758;28;20363;-68
2021/05/26 03:02:04;;;;;;;31.27;13.75;;;;;;;;;;8293423;28;20600;-68
2021/05/26 03:06:29;;;;;;;27.17;11.40;;;;;;;;;;8289503;28;20459;-68
2021/05/26 03:10:36;;;;;;;26.33;10.95;;;;;;;;;;8306789;28;20482;-66
2021/05/26 03:14:56;;;;;;;28.25;10.35;;;;;;;;;;8307239;28;20386;-67
2021/05/26 03:19:03;;;;;;;76.68;22.25;;;;;;;;;;8290651;28;20399;-67
2021/05/26 03:23:09;;;;;;;15.75;7.90;;;;;;;;;;8306634;28;20360;-67
2021/05/26 03:27:35;;;;;;;19.05;6.38;;;;;;;;;;8291564;28;20394;-67
2021/05/26 03:31:39;;;;;;;14.55;5.47;;;;;;;;;;8291277;28;20075;-67
2021/05/26 03:35:45;;;;;;;15.60;7.68;;;;;;;;;;8291692;28;20407;-67
2021/05/26 03:39:51;;;;;;;22.23;9.65;;;;;;;;;;8291186;28;20056;-67
2021/05/26 03:43:57;;;;;;;83.35;37.75;;;;;;;;;;8307058;28;20117;-67
2021/05/26 03:48:04;;;;;;;71.35;31.10;;;;;;;;;;8321402;28;20471;-66
2021/05/26 03:52:09;;;;;;;37.72;16.48;;;;;;;;;;8322020;28;20377;-67
2021/05/26 03:56:21;;;;;;;13.90;6.63;;;;;;;;;;8304508;28;20438;-67
2021/05/26 04:00:32;;;;;;;13.88;4.03;;;;;;;;;;8305055;28;20379;-67
2021/05/26 04:04:53;;;;;;;5.63;2.10;;;;;;;;;;8303190;28;20509;-67
2021/05/26 04:08:58;;;;;;;9.10;2.95;;;;;;;;;;8322185;28;20490;-66
2021/05/26 04:13:05;;;;;;;3.72;1.92;;;;;;;;;;8304539;28;20367;-66
2021/05/26 04:17:17;;;;;;;6.07;2.42;;;;;;;;;;8304169;28;20052;-67
2021/05/26 04:21:36;;;;;;;5.50;2.00;;;;;;;;;;8321733;28;20059;-67
2021/05/26 04:25:42;;;;;;;4.70;2.33;;;;;;;;;;8304131;28;20455;-67
2021/05/26 04:29:47;;;;;;;7.47;2.55;;;;;;;;;;8320716;28;20390;-67
2021/05/26 04:33:53;;;;;;;6.03;3.10;;;;;;;;;;8304161;28;20383;-66
2021/05/26 04:37:58;;;;;;;7.53;2.33;;;;;;;;;;8321259;28;20493;-67
2021/05/26 04:42:03;;;;;;;4.72;2.08;;;;;;;;;;8323584;28;20443;-67
2021/05/26 04:46:08;;;;;;;5.68;1.83;;;;;;;;;;8267358;28;1604753;-67
2021/05/26 04:50:14;;;;;;;5.72;1.75;;;;;;;;;;8320973;28;20446;-67
2021/05/26 04:54:19;;;;;;;2.53;1.50;;;;;;;;;;8324012;28;20079;-67
2021/05/26 04:58:24;;;;;;;3.88;1.80;;;;;;;;;;8323766;28;20485;-67
2021/05/26 05:02:29;;;;;;;5.22;1.45;;;;;;;;;;8323388;28;20391;-66
2021/05/26 05:06:33;;;;;;;2.72;1.10;;;;;;;;;;8322828;28;20447;-67
2021/05/26 05:10:38;;;;;;;3.78;1.02;;;;;;;;;;8325181;28;20401;-67
2021/05/26 05:14:43;;;;;;;2.75;1.45;;;;;;;;;;8322131;28;20083;-67
2021/05/26 05:18:48;;;;;;;3.78;1.30;;;;;;;;;;8323294;28;20481;-67
2021/05/26 05:22:55;;;;;;;2.58;1.02;;;;;;;;;;8324765;28;20384;-68
2021/05/26 05:27:00;;;;;;;5.53;0.93;;;;;;;;;;8323067;28;20477;-67
2021/05/26 05:31:04;;;;;;;1.95;1.10;;;;;;;;;;8308711;28;20381;-68
2021/05/26 05:35:10;;;;;;;2.92;1.20;;;;;;;;;;8329924;28;20471;-69
2021/05/26 05:39:16;;;;;;;1.75;0.80;;;;;;;;;;8327945;28;20363;-67
2021/05/26 05:43:21;;;;;;;5.22;0.93;;;;;;;;;;8324718;28;20508;-67
2021/05/26 05:47:27;;;;;;;2.45;0.75;;;;;;;;;;8328427;28;20457;-67
2021/05/26 05:51:32;;;;;;;2.20;0.95;;;;;;;;;;8327022;28;20416;-68
2021/05/26 05:55:37;;;;;;;2.75;0.80;;;;;;;;;;8326900;28;20451;-67
2021/05/26 05:59:41;;;;;;;1.50;0.75;;;;;;;;;;8329324;28;20374;-67
2021/05/26 06:03:46;;;;;;;4.25;0.90;;;;;;;;;;8327297;28;20394;-67
2021/05/26 06:07:51;;;;;;;5.85;1.10;;;;;;;;;;8328033;28;20393;-68
2021/05/26 06:11:56;;;;;;;1.63;0.73;;;;;;;;;;8326911;28;20377;-67
2021/05/26 06:16:01;;;;;;;3.45;1.20;;;;;;;;;;8326612;28;20375;-67
2021/05/26 06:20:07;;;;;;;5.18;2.00;;;;;;;;;;8327640;28;20056;-67
2021/05/26 06:24:12;;;;;;;1.92;0.88;;;;;;;;;;8328015;28;20358;-67
2021/05/26 06:28:17;;;;;;;2.15;0.93;;;;;;;;;;8327052;28;20079;-67
2021/05/26 06:32:22;;;;;;;4.32;0.88;;;;;;;;;;8325706;28;20572;-67
2021/05/26 06:36:32;;;;;;;3.53;1.00;;;;;;;;;;8327979;28;20485;-67
2021/05/26 06:40:39;;;;;;;2.63;1.10;;;;;;;;;;8308964;28;20377;-67
2021/05/26 06:44:43;;;;;;;3.78;0.80;;;;;;;;;;8292904;28;20418;-68
2021/05/26 06:48:49;;;;;;;3.92;1.17;;;;;;;;;;8296714;28;20135;-69
2021/05/26 06:52:53;;;;;;;3.67;1.73;;;;;;;;;;8292428;28;20451;-67
2021/05/26 06:57:00;;;;;;;3.92;0.90;;;;;;;;;;8293503;28;20406;-67
2021/05/26 07:01:05;;;;;;;5.75;0.82;;;;;;;;;;8308546;28;20460;-68
2021/05/26 07:05:10;;;;;;;4.40;1.42;;;;;;;;;;8289882;28;20482;-68
2021/05/26 07:09:16;;;;;;;2.22;0.68;;;;;;;;;;8291382;28;20071;-68
2021/05/26 07:13:19;;;;;;;3.20;0.80;;;;;;;;;;8292410;28;20060;-67
2021/05/26 07:17:23;;;;;;;3.10;1.00;;;;;;;;;;8291159;28;20452;-68
2021/05/26 07:21:28;;;;;;;2.25;0.90;;;;;;;;;;8291113;28;20484;-67
2021/05/26 07:25:32;;;;;;;5.25;1.08;;;;;;;;;;8291078;28;20060;-67
2021/05/26 07:29:37;;;;;;;2.08;0.85;;;;;;;;;;8290896;28;20040;-69
2021/05/26 07:33:42;;;;;;;4.10;0.80;;;;;;;;;;8290369;28;20373;-68
2021/05/26 07:37:45;;;;;;;2.55;0.73;;;;;;;;;;8290706;28;20385;-67
2021/05/26 07:41:49;;;;;;;3.63;2.08;;;;;;;;;;8289368;28;20489;-67
2021/05/26 07:45:54;;;;;;;1.80;0.90;;;;;;;;;;8318751;28;20366;-68
2021/05/26 07:49:59;;;;;;;3.13;1.40;;;;;;;;;;8324179;28;20051;-69
2021/05/26 07:54:06;;;;;;;13.32;4.80;;;;;;;;;;8323973;28;20363;-68
2021/05/26 07:58:09;;;;;;;2.40;1.05;;;;;;;;;;8322655;28;20435;-69
2021/05/26 08:02:15;;;;;;;2.35;0.60;;;;;;;;;;8322283;28;20478;-68
2021/05/26 08:06:20;;;;;;;2.97;1.40;;;;;;;;;;8324714;28;20470;-70
2021/05/26 08:10:24;;;;;;;8.32;1.45;;;;;;;;;;8323787;28;20459;-68
2021/05/26 08:14:30;;;;;;;3.35;0.75;;;;;;;;;;8325415;28;20465;-68
2021/05/26 08:18:35;;;;;;;3.10;1.07;;;;;;;;;;8323449;28;20056;-68
2021/05/26 08:22:39;;;;;;;4.85;0.98;;;;;;;;;;8322086;28;20447;-68
2021/05/26 08:26:49;;;;;;;3.05;0.60;;;;;;;;;;8323025;28;20443;-68
2021/05/26 08:30:56;;;;;;;1.63;0.52;;;;;;;;;;8323570;28;20386;-68
2021/05/26 08:35:00;;;;;;;3.22;1.30;;;;;;;;;;8325628;28;20481;-69
2021/05/26 08:39:06;;;;;;;4.80;0.93;;;;;;;;;;8327116;28;20050;-68
2021/05/26 08:43:16;;;;;;;1.40;0.90;;;;;;;;;;8323800;28;20380;-68
2021/05/26 08:47:27;;;;;;;4.60;0.73;;;;;;;;;;8325990;28;20386;-68
2021/05/26 08:51:34;;;;;;;2.08;0.90;;;;;;;;;;8323914;28;20485;-67
2021/05/26 08:55:39;;;;;;;2.85;1.05;;;;;;;;;;8323724;28;20624;-67
2021/05/26 08:59:44;;;;;;;1.88;0.77;;;;;;;;;;8321375;28;20359;-69
2021/05/26 09:03:51;;;;;;;1.27;0.73;;;;;;;;;;8324407;28;20359;-68
2021/05/26 09:07:56;;;;;;;2.15;0.95;;;;;;;;;;8328400;28;20473;-68
2021/05/26 09:12:01;;;;;;;1.65;0.70;;;;;;;;;;8326176;28;20438;-67
2021/05/26 09:16:28;;;;;;;2.85;0.90;;;;;;;;;;8328781;28;20390;-68
2021/05/26 09:20:35;;;;;;;4.75;0.90;;;;;;;;;;8324812;28;20394;-68
2021/05/26 09:24:40;;;;;;;1.90;0.60;;;;;;;;;;8332889;28;20358;-68
2021/05/26 09:28:44;;;;;;;8.88;0.93;;;;;;;;;;8325974;28;20478;-68
2021/05/26 09:32:49;;;;;;;2.30;0.65;;;;;;;;;;8328691;28;20469;-68
2021/05/26 09:36:56;;;;;;;2.17;0.60;;;;;;;;;;8329064;28;20431;-67
2021/05/26 09:41:15;;;;;;;9.07;0.93;;;;;;;;;;8310428;28;20435;-68
2021/05/26 09:45:25;;;;;;;1.05;0.40;;;;;;;;;;8327116;28;20385;-68
2021/05/26 09:49:30;;;;;;;4.43;0.65;;;;;;;;;;8328303;28;20052;-68
2021/05/26 09:53:35;;;;;;;6.55;0.80;;;;;;;;;;8311570;28;20478;-67
2021/05/26 09:57:40;;;;;;;1.80;0.70;;;;;;;;;;8329716;28;20346;-68
2021/05/26 10:01:45;;;;;;;4.38;0.70;;;;;;;;;;8311342;28;20371;-67
2021/05/26 10:05:50;;;;;;;6.75;1.02;;;;;;;;;;8329166;28;20439;-69
2021/05/26 10:10:14;;;;;;;3.30;0.70;;;;;;;;;;8313451;28;20044;-68
2021/05/26 10:14:28;;;;;;;4.80;0.80;;;;;;;;;;8309867;28;20478;-67
2021/05/26 10:18:36;;;;;;;2.80;0.60;;;;;;;;;;8325711;28;20521;-68
2021/05/26 10:22:41;;;;;;;8.82;0.90;;;;;;;;;;8327211;28;20387;-68
2021/05/26 10:26:54;;;;;;;3.88;0.88;;;;;;;;;;8309080;28;20366;-69
2021/05/26 10:31:01;;;;;;;2.80;0.60;;;;;;;;;;8327116;28;20520;-68
2021/05/26 10:35:07;;;;;;;1.92;0.40;;;;;;;;;;8328034;28;20091;-69
2021/05/26 10:39:29;;;;;;;4.20;0.65;;;;;;;;;;8307542;28;20367;-67
2021/05/26 10:43:36;;;;;;;1.77;0.50;;;;;;;;;;8308037;28;20397;-69
2021/05/26 10:47:43;;;;;;;2.90;0.70;;;;;;;;;;8325633;28;20459;-68
2021/05/26 10:51:53;;;;;;;1.20;0.57;;;;;;;;;;8325253;28;20387;-68
2021/05/26 10:55:58;;;;;;;3.50;0.90;;;;;;;;;;8325387;28;21009;-68
2021/05/26 11:00:27;;;;;;;8.85;1.15;;;;;;;;;;8325007;28;20470;-68
2021/05/26 11:04:34;;;;;;;3.92;0.60;;;;;;;;;;8326314;28;20060;-69
2021/05/26 11:08:41;;;;;;;2.28;0.60;;;;;;;;;;8324727;28;20052;-68
2021/05/26 11:12:55;;;;;;;3.95;1.35;;;;;;;;;;8324895;28;20378;-68
2021/05/26 11:17:02;;;;;;;1.38;0.57;;;;;;;;;;8324777;28;20485;-68
2021/05/26 11:21:16;;;;;;;4.30;1.02;;;;;;;;;;8307398;28;20351;-68
2021/05/26 11:25:22;;;;;;;5.57;0.60;;;;;;;;;;8325160;28;20070;-68
2021/05/26 11:29:27;;;;;;;3.92;1.02;;;;;;;;;;8324036;28;20356;-68
2021/05/26 11:33:32;;;;;;;4.32;1.05;;;;;;;;;;8305425;28;20489;-68
2021/05/26 11:37:41;;;;;;;2.22;0.70;;;;;;;;;;8324248;28;20078;-68
2021/05/26 11:41:44;;;;;;;4.63;0.80;;;;;;;;;;8323757;28;20078;-69
2021/05/26 11:46:10;;;;;;;3.40;0.60;;;;;;;;;;8288454;28;20170;-68
2021/05/26 11:50:15;;;;;;;15.57;1.17;;;;;;;;;;8289924;28;20439;-69
2021/05/26 11:54:19;;;;;;;6.63;0.93;;;;;;;;;;8290439;28;20390;-68
2021/05/26 11:58:38;;;;;;;3.83;0.63;;;;;;;;;;8288725;28;20348;-67
2021/05/26 12:02:55;;;;;;;4.60;0.80;;;;;;;;;;8289350;28;20344;-67
2021/05/26 12:07:03;;;;;;;1.92;0.75;;;;;;;;;;8290795;28;20383;-67
2021/05/26 12:11:14;;;;;;;3.42;0.60;;;;;;;;;;8289219;28;20468;-67
2021/05/26 12:15:20;;;;;;;4.25;0.95;;;;;;;;;;8290161;28;20561;-68
2021/05/26 12:19:32;;;;;;;2.65;0.70;;;;;;;;;;8289970;28;20071;-67
2021/05/26 12:23:41;;;;;;;4.03;0.75;;;;;;;;;;8288305;28;20474;-68
2021/05/26 12:27:48;;;;;;;2.97;0.75;;;;;;;;;;8289523;28;20398;-68
2021/05/26 12:31:52;;;;;;;4.15;0.93;;;;;;;;;;8289633;28;20391;-67
2021/05/26 12:36:03;;;;;;;3.83;0.80;;;;;;;;;;8290753;28;20485;-67
2021/05/26 12:40:09;;;;;;;1.92;0.63;;;;;;;;;;8294265;28;20463;-68
2021/05/26 12:44:14;;;;;;;4.25;0.90;;;;;;;;;;8311972;28;20390;-67
2021/05/26 12:48:19;;;;;;;2.22;0.65;;;;;;;;;;8330327;28;20078;-67
2021/05/26 12:52:29;;;;;;;2.25;0.73;;;;;;;;;;8329586;28;20060;-68
2021/05/26 12:56:34;;;;;;;1.40;0.60;;;;;;;;;;8311568;28;20387;-67
2021/05/26 13:00:40;;;;;;;3.08;0.98;;;;;;;;;;8330462;28;20369;-67
2021/05/26 13:04:51;;;;;;;4.00;0.80;;;;;;;;;;8328911;28;20074;-67
2021/05/26 13:09:00;;;;;;;3.95;1.02;;;;;;;;;;8311251;28;20383;-67
2021/05/26 13:13:29;;;;;;;4.72;1.23;;;;;;;;;;8327597;28;20343;-67
2021/05/26 13:17:34;;;;;;;4.13;0.90;;;;;;;;;;8328917;28;20443;-67
2021/05/26 13:21:47;;;;;;;1.95;0.90;;;;;;;;;;8310775;28;20385;-68
2021/05/26 13:25:54;;;;;;;4.53;0.93;;;;;;;;;;8313429;28;20354;-67
2021/05/26 13:30:00;;;;;;;4.40;0.73;;;;;;;;;;8329538;28;20478;-67
2021/05/26 13:34:06;;;;;;;4.97;0.80;;;;;;;;;;8327991;28;20473;-67
2021/05/26 13:38:12;;;;;;;2.58;0.73;;;;;;;;;;8330260;28;20390;-67
2021/05/26 13:42:17;;;;;;;2.08;0.70;;;;;;;;;;8326947;28;20371;-67
2021/05/26 13:46:25;;;;;;;8.30;0.82;;;;;;;;;;8309779;28;20447;-67
2021/05/26 13:50:30;;;;;;;3.33;0.90;;;;;;;;;;8327413;28;20055;-67
2021/05/26 13:54:35;;;;;;;1.15;0.57;;;;;;;;;;8327614;28;20493;-67
2021/05/26 13:58:43;;;;;;;2.58;0.90;;;;;;;;;;8328880;28;20489;-68
2021/05/26 14:02:46;;;;;;;1.15;0.60;;;;;;;;;;8308868;28;20336;-67
2021/05/26 14:06:53;;;;;;;1.55;0.70;;;;;;;;;;8326792;28;20501;-67
2021/05/26 14:11:00;;;;;;;4.50;0.57;;;;;;;;;;8327583;28;20365;-67
2021/05/26 14:15:12;;;;;;;1.77;0.60;;;;;;;;;;8326797;28;20371;-67
2021/05/26 14:19:20;;;;;;;2.15;0.90;;;;;;;;;;8292786;28;20352;-67
2021/05/26 14:23:25;;;;;;;1.73;0.80;;;;;;;;;;8326314;28;20496;-66
2021/05/26 14:27:33;;;;;;;1.23;0.50;;;;;;;;;;8326605;28;20421;-66
2021/05/26 14:31:58;;;;;;;2.80;0.73;;;;;;;;;;8324269;28;20427;-68
2021/05/26 14:36:06;;;;;;;3.85;0.70;;;;;;;;;;8308696;28;20359;-66
2021/05/26 14:40:12;;;;;;;3.22;0.88;;;;;;;;;;8307540;28;20052;-66
2021/05/26 14:44:22;;;;;;;2.78;0.88;;;;;;;;;;8324635;28;20074;-66
2021/05/26 14:48:29;;;;;;;2.78;0.70;;;;;;;;;;8326206;28;20168;-68
2021/05/26 14:52:38;;;;;;;3.33;0.88;;;;;;;;;;8328114;28;20468;-66
2021/05/26 14:56:47;;;;;;;4.30;0.70;;;;;;;;;;8309218;28;20048;-67
2021/05/26 15:00:55;;;;;;;3.78;0.70;;;;;;;;;;8324849;28;20474;-67
2021/05/26 15:05:05;;;;;;;4.75;0.60;;;;;;;;;;8325526;28;20052;-66
2021/05/26 15:09:11;;;;;;;2.72;0.85;;;;;;;;;;8326938;28;20358;-66
2021/05/26 15:13:19;;;;;;;7.60;0.90;;;;;;;;;;8324777;28;20475;-66
2021/05/26 15:17:26;;;;;;;5.97;0.90;;;;;;;;;;8326659;28;20320;-66
2021/05/26 15:21:35;;;;;;;4.40;1.20;;;;;;;;;;8323895;28;20333;-67
2021/05/26 15:25:45;;;;;;;1.27;0.50;;;;;;;;;;8307446;28;20056;-67
2021/05/26 15:29:52;;;;;;;1.40;0.77;;;;;;;;;;8324350;28;20485;-66
2021/05/26 15:33:56;;;;;;;2.22;0.85;;;;;;;;;;8306759;28;20344;-67
2021/05/26 15:38:03;;;;;;;1.30;0.80;;;;;;;;;;8325737;28;20079;-67
2021/05/26 15:42:10;;;;;;;2.03;0.77;;;;;;;;;;8306977;28;20048;-67
2021/05/26 15:46:19;;;;;;;3.15;0.73;;;;;;;;;;8325664;28;20391;-67
2021/05/26 15:50:29;;;;;;;5.93;0.77;;;;;;;;;;8324134;28;20485;-66
2021/05/26 15:54:38;;;;;;;1.25;0.60;;;;;;;;;;8325934;28;20446;-66
2021/05/26 15:58:46;;;;;;;2.17;0.60;;;;;;;;;;8325838;28;20455;-67
2021/05/26 16:02:54;;;;;;;2.60;0.82;;;;;;;;;;8324155;28;20382;-67
2021/05/26 16:06:59;;;;;;;2.63;0.80;;;;;;;;;;8325550;28;20361;-66
2021/05/26 16:11:06;;;;;;;1.35;0.60;;;;;;;;;;8324057;28;20395;-67
2021/05/26 16:15:15;;;;;;;1.27;0.70;;;;;;;;;;8322961;28;20459;-67
2021/05/26 16:19:21;;;;;;;;;;;;;;;;;;8325614;28;20467;-66
2021/05/26 16:23:29;;;;;;;;;;;;;;;;;;8324937;28;20255;-66
2021/05/26 16:27:35;;;;;;;15.23;6.55;;;;;;;;;;8322924;28;20107;-67
2021/05/26 16:31:43;;;;;;;15.93;10.35;;;;;;;;;;8325138;28;20344;-66
2021/05/26 16:35:49;;;;;;;10.70;5.22;;;;;;;;;;8322968;28;20060;-66
2021/05/26 16:39:56;;;;;;;3.43;2.13;;;;;;;;;;8322873;28;20332;-66
2021/05/26 16:44:06;;;;;;;4.97;1.58;;;;;;;;;;8318922;28;20482;-66
2021/05/26 16:48:13;;;;;;;5.47;1.88;;;;;;;;;;8306919;28;20059;-66
2021/05/26 16:52:22;;;;;;;4.18;2.35;;;;;;;;;;8322321;28;20471;-66
2021/05/26 16:56:32;;;;;;;2.60;1.13;;;;;;;;;;8324542;28;20055;-66
2021/05/26 17:00:38;;;;;;;2.65;1.10;;;;;;;;;;8305278;28;20335;-67
2021/05/26 17:04:44;;;;;;;8.57;3.45;;;;;;;;;;8325148;28;20443;-67
2021/05/26 17:08:51;;;;;;;4.40;1.90;;;;;;;;;;8303676;28;20332;-66
2021/05/26 17:12:56;;;;;;;7.50;1.50;;;;;;;;;;8326206;28;20452;-67
2021/05/26 17:17:02;;;;;;;2.33;1.10;;;;;;;;;;8322733;28;20467;-66
2021/05/26 17:21:08;;;;;;;6.75;1.90;;;;;;;;;;8323147;28;20360;-66
2021/05/26 17:25:16;;;;;;;10.77;3.95;;;;;;;;;;8324144;28;20470;-67
2021/05/26 17:29:28;;;;;;;8.68;3.58;;;;;;;;;;8328231;28;20471;-68
2021/05/26 17:33:42;;;;;;;11.73;3.75;;;;;;;;;;8329022;28;20479;-66
2021/05/26 17:37:49;;;;;;;16.80;5.35;;;;;;;;;;8310038;28;20385;-67
2021/05/26 17:41:56;;;;;;;;;;;;;;;;;;8328306;28;20389;-67
2021/05/26 17:46:04;;;;;;;3.78;0.90;;;;;;;;;;8326752;28;20331;-66
2021/05/26 17:50:17;;;;;;;;;;;;;;;;;;8328146;28;20382;-66
2021/05/26 17:54:26;;;;;;;1.67;0.80;;;;;;;;;;8311306;28;20350;-66
2021/05/26 17:58:33;;;;;;;12.55;1.00;;;;;;;;;;8294082;28;20500;-66
2021/05/26 18:02:39;;;;;;;1.80;0.70;;;;;;;;;;8327505;28;20347;-66
2021/05/26 18:06:46;;;;;;;4.07;1.00;;;;;;;;;;8327764;28;20556;-67
2021/05/26 18:10:51;;;;;;;2.08;1.10;;;;;;;;;;8326749;28;20477;-66
2021/05/26 18:14:56;;;;;;;3.33;1.50;;;;;;;;;;8293318;28;20390;-66
2021/05/26 18:19:03;;;;;;;4.40;1.70;;;;;;;;;;8325021;28;20371;-67
2021/05/26 18:23:09;;;;;;;5.25;2.58;;;;;;;;;;8309655;28;20450;-67
2021/05/26 18:27:16;;;;;;;6.13;2.20;;;;;;;;;;8327501;28;20375;-67
2021/05/26 18:31:22;;;;;;;4.13;2.13;;;;;;;;;;8325622;28;20052;-67
2021/05/26 18:35:30;;;;;;;4.07;2.20;;;;;;;;;;8326544;28;20455;-66
2021/05/26 18:39:35;;;;;;;13.05;2.92;;;;;;;;;;8324871;28;20064;-67
2021/05/26 18:43:41;;;;;;;6.95;2.90;;;;;;;;;;8326729;28;20430;-66
2021/05/26 18:47:46;;;;;;;9.68;3.08;;;;;;;;;;8327568;28;20405;-66
2021/05/26 18:51:52;;;;;;;8.80;4.00;;;;;;;;;;8326044;28;20449;-66
2021/05/26 18:55:58;;;;;;;9.57;4.57;;;;;;;;;;8325386;28;20056;-66
2021/05/26 19:00:13;;;;;;;7.15;3.20;;;;;;;;;;8325551;28;20401;-66
2021/05/26 19:04:19;;;;;;;7.18;3.83;;;;;;;;;;8307053;28;20394;-66
2021/05/26 19:08:22;;;;;;;20.15;6.07;;;;;;;;;;8326056;28;20348;-66
2021/05/26 19:12:27;;;;;;;11.55;5.07;;;;;;;;;;8308327;28;20332;-66
2021/05/26 19:16:33;;;;;;;12.02;5.10;;;;;;;;;;8306925;28;20055;-66
2021/05/26 19:20:38;;;;;;;14.98;6.65;;;;;;;;;;8325164;28;20467;-66
2021/05/26 19:24:43;;;;;;;13.57;5.57;;;;;;;;;;8326314;28;20395;-66
2021/05/26 19:28:48;;;;;;;13.48;6.25;;;;;;;;;;8324636;28;20370;-66
2021/05/26 19:32:53;;;;;;;8.70;4.32;;;;;;;;;;8324290;28;20443;-66
2021/05/26 19:36:59;;;;;;;9.75;4.20;;;;;;;;;;8307426;28;20378;-66
2021/05/26 19:41:05;;;;;;;11.32;4.93;;;;;;;;;;8322782;28;20394;-66
2021/05/26 19:45:09;;;;;;;9.38;4.18;;;;;;;;;;8323260;28;20497;-66
2021/05/26 19:49:35;;;;;;;12.75;4.28;;;;;;;;;;8305013;28;20485;-66
2021/05/26 19:53:40;;;;;;;10.88;4.03;;;;;;;;;;8307553;28;20353;-66
2021/05/26 19:57:46;;;;;;;8.15;4.15;;;;;;;;;;8324860;28;20375;-66
2021/05/26 20:01:51;;;;;;;14.00;3.90;;;;;;;;;;8325194;28;20386;-66
2021/05/26 20:05:56;;;;;;;6.85;3.22;;;;;;;;;;8325539;28;20463;-66
2021/05/26 20:10:01;;;;;;;8.10;2.50;;;;;;;;;;8324140;28;20462;-66
2021/05/26 20:14:06;;;;;;;6.80;2.42;;;;;;;;;;8323600;28;20358;-66
2021/05/26 20:18:09;;;;;;;5.43;2.35;;;;;;;;;;8305564;28;20405;-66
2021/05/26 20:22:15;;;;;;;5.20;2.97;;;;;;;;;;8325159;28;20356;-66
2021/05/26 20:26:22;;;;;;;7.82;3.50;;;;;;;;;;8306426;28;20059;-66
2021/05/26 20:30:28;;;;;;;12.52;3.13;;;;;;;;;;8306951;28;20052;-66
2021/05/26 20:34:34;;;;;;;7.32;3.17;;;;;;;;;;8323659;28;20413;-66
2021/05/26 20:38:41;;;;;;;5.88;2.50;;;;;;;;;;8323244;28;20363;-66
2021/05/26 20:42:47;;;;;;;4.85;2.20;;;;;;;;;;8324833;28;20447;-67
2021/05/26 20:46:50;;;;;;;7.22;2.30;;;;;;;;;;8260039;28;20386;-66
2021/05/26 20:50:55;;;;;;;3.17;1.83;;;;;;;;;;8259873;28;20348;-66
2021/05/26 20:55:00;;;;;;;5.18;2.45;;;;;;;;;;8257882;28;20368;-66
2021/05/26 20:59:05;;;;;;;6.07;2.38;;;;;;;;;;8260827;28;20472;-66
2021/05/26 21:03:10;;;;;;;7.53;2.75;;;;;;;;;;8264116;28;20048;-66
2021/05/26 21:07:17;;;;;;;9.45;2.78;;;;;;;;;;8265711;28;20370;-66
2021/05/26 21:11:23;;;;;;;4.50;1.80;;;;;;;;;;8265143;28;20486;-66
2021/05/26 21:15:27;;;;;;;12.00;2.63;;;;;;;;;;8263229;28;20060;-66
2021/05/26 21:19:32;;;;;;;5.28;2.00;;;;;;;;;;8263338;28;20448;-66
2021/05/26 21:23:37;;;;;;;4.68;1.88;;;;;;;;;;8264241;28;20704;-66
2021/05/26 21:27:42;;;;;;;4.78;2.25;;;;;;;;;;8262308;28;20427;-66
2021/05/26 21:31:48;;;;;;;5.78;2.38;;;;;;;;;;8262597;28;20463;-66
2021/05/26 21:35:52;;;;;;;5.88;2.70;;;;;;;;;;8263032;28;20399;-66
2021/05/26 21:39:57;;;;;;;11.50;2.65;;;;;;;;;;8263965;28;20345;-66
2021/05/26 21:44:04;;;;;;;8.20;2.60;;;;;;;;;;8282279;28;20466;-66
2021/05/26 21:48:09;;;;;;;9.13;2.65;;;;;;;;;;8327951;28;20378;-66
2021/05/26 21:52:14;;;;;;;8.30;2.63;;;;;;;;;;8309761;28;20471;-66
2021/05/26 21:56:19;;;;;;;6.40;2.42;;;;;;;;;;8328145;28;20371;-66
2021/05/26 22:00:34;;;;;;;9.95;2.83;;;;;;;;;;8327032;28;20486;-67
2021/05/26 22:04:38;;;;;;;11.85;3.05;;;;;;;;;;8328331;28;20394;-66
2021/05/26 22:08:43;;;;;;;8.63;3.00;;;;;;;;;;8328023;28;20401;-66
2021/05/26 22:12:49;;;;;;;6.95;3.03;;;;;;;;;;8326827;28;20355;-66
2021/05/26 22:16:54;;;;;;;8.45;3.33;;;;;;;;;;8326635;28;20473;-66
2021/05/26 22:21:00;;;;;;;7.60;3.17;;;;;;;;;;8328181;28;20390;-66
2021/05/26 22:25:09;;;;;;;7.45;3.80;;;;;;;;;;8328237;28;20469;-66
2021/05/26 22:29:14;;;;;;;10.68;3.47;;;;;;;;;;8308576;28;20493;-66
2021/05/26 22:33:18;;;;;;;4.70;2.70;;;;;;;;;;8327315;28;20364;-67
2021/05/26 22:37:23;;;;;;;9.60;3.10;;;;;;;;;;8326411;28;20470;-66
2021/05/26 22:41:28;;;;;;;6.38;3.15;;;;;;;;;;8327377;28;20474;-66
2021/05/26 22:45:35;;;;;;;9.02;2.83;;;;;;;;;;8326766;28;20462;-66
2021/05/26 22:49:41;;;;;;;7.80;3.60;;;;;;;;;;8326716;28;20475;-67
2021/05/26 22:53:45;;;;;;;5.93;2.85;;;;;;;;;;8325731;28;20375;-68
2021/05/26 22:57:49;;;;;;;6.47;3.22;;;;;;;;;;8327514;28;20461;-66
2021/05/26 23:01:53;;;;;;;6.70;3.58;;;;;;;;;;8328393;28;20439;-66
2021/05/26 23:06:01;;;;;;;9.65;3.83;;;;;;;;;;8326967;28;20492;-66
2021/05/26 23:10:08;;;;;;;6.18;3.20;;;;;;;;;;8326460;28;20419;-66
2021/05/26 23:14:13;;;;;;;8.13;2.83;;;;;;;;;;8325109;28;20056;-66
2021/05/26 23:18:19;;;;;;;7.90;3.38;;;;;;;;;;8307966;28;20044;-66
2021/05/26 23:22:24;;;;;;;8.63;3.28;;;;;;;;;;8324885;28;20379;-66
2021/05/26 23:26:29;;;;;;;7.43;3.30;;;;;;;;;;8324537;28;20455;-66
2021/05/26 23:30:36;;;;;;;6.60;2.53;;;;;;;;;;8325512;28;20048;-66
2021/05/26 23:34:41;;;;;;;7.45;3.20;;;;;;;;;;8307398;28;20052;-66
2021/05/26 23:38:46;;;;;;;10.07;3.33;;;;;;;;;;8324965;28;20398;-66
2021/05/26 23:42:52;;;;;;;4.43;2.70;;;;;;;;;;8324319;28;20454;-66
2021/05/26 23:46:56;;;;;;;8.07;3.13;;;;;;;;;;8290515;28;20483;-66
2021/05/26 23:51:01;;;;;;;10.77;3.17;;;;;;;;;;8290926;28;20456;-66
2021/05/26 23:55:07;;;;;;;7.63;3.35;;;;;;;;;;8290954;28;20382;-66
2021/05/26 23:59:11;;;;;;;8.50;2.95;;;;;;;;;;8290814;28;20075;-66
